sensor_id;sensor_type;location;lat;lon;timestamp;temperature;humidity
71754;DHT22;59593;51.716;7.016;2023-07-13T00:02:11;17.90;99.90
71754;DHT22;59593;51.716;7.016;2023-07-13T00:04:37;17.90;99.90
71754;DHT22;59593;51.716;7.016;2023-07-13T00:07:02;17.90;99.90
71754;DHT22;59593;51.716;7.016;2023-07-13T00:09:31;17.90;99.90
71754;DHT22;59593;51.716;7.016;2023-07-13T00:15:32;17.90;99.90
71754;DHT22;59593;51.716;7.016;2023-07-13T00:17:58;17.80;99.90
71754;DHT22;59593;51.716;7.016;2023-07-13T00:20:26;17.80;99.90
71754;DHT22;59593;51.716;7.016;2023-07-13T00:22:53;17.80;99.90
71754;DHT22;59593;51.716;7.016;2023-07-13T00:25:40;17.80;99.90
71754;DHT22;59593;51.716;7.016;2023-07-13T00:32:21;17.70;99.90
71754;DHT22;59593;51.716;7.016;2023-07-13T00:35:13;17.40;99.90
71754;DHT22;59593;51.716;7.016;2023-07-13T00:37:42;17.30;99.90
71754;DHT22;59593;51.716;7.016;2023-07-13T00:55:06;17.20;99.90
71754;DHT22;59593;51.716;7.016;2023-07-13T00:57:59;17.10;99.90
71754;DHT22;59593;51.716;7.016;2023-07-13T01:00:28;17.10;99.90
71754;DHT22;59593;51.716;7.016;2023-07-13T01:03:03;17.10;99.90
71754;DHT22;59593;51.716;7.016;2023-07-13T01:08:23;16.80;99.90
71754;DHT22;59593;51.716;7.016;2023-07-13T01:10:56;16.60;99.90
71754;DHT22;59593;51.716;7.016;2023-07-13T01:13:27;16.70;99.90
71754;DHT22;59593;51.716;7.016;2023-07-13T01:15:58;16.80;99.90
71754;DHT22;59593;51.716;7.016;2023-07-13T01:18:38;16.70;99.90
71754;DHT22;59593;51.716;7.016;2023-07-13T01:21:10;16.70;99.90
71754;DHT22;59593;51.716;7.016;2023-07-13T01:23:49;16.70;99.90
71754;DHT22;59593;51.716;7.016;2023-07-13T01:29:01;16.50;99.90
71754;DHT22;59593;51.716;7.016;2023-07-13T01:31:27;16.60;99.90
71754;DHT22;59593;51.716;7.016;2023-07-13T01:33:54;16.60;99.90
71754;DHT22;59593;51.716;7.016;2023-07-13T01:36:23;16.60;99.90
71754;DHT22;59593;51.716;7.016;2023-07-13T01:38:50;16.60;99.90
71754;DHT22;59593;51.716;7.016;2023-07-13T01:41:18;16.80;99.90
71754;DHT22;59593;51.716;7.016;2023-07-13T01:43:47;16.80;99.90
71754;DHT22;59593;51.716;7.016;2023-07-13T01:46:13;16.90;99.90
71754;DHT22;59593;51.716;7.016;2023-07-13T01:48:45;17.10;99.90
71754;DHT22;59593;51.716;7.016;2023-07-13T01:51:25;17.00;99.90
71754;DHT22;59593;51.716;7.016;2023-07-13T01:53:53;16.80;99.90
71754;DHT22;59593;51.716;7.016;2023-07-13T01:57:03;16.50;99.90
71754;DHT22;59593;51.716;7.016;2023-07-13T01:59:31;16.50;99.90
71754;DHT22;59593;51.716;7.016;2023-07-13T02:04:47;16.60;99.90
71754;DHT22;59593;51.716;7.016;2023-07-13T02:07:13;16.60;99.90
71754;DHT22;59593;51.716;7.016;2023-07-13T02:09:43;16.60;99.90
71754;DHT22;59593;51.716;7.016;2023-07-13T02:12:16;16.60;99.90
71754;DHT22;59593;51.716;7.016;2023-07-13T02:14:45;16.50;99.90
71754;DHT22;59593;51.716;7.016;2023-07-13T02:17:16;16.50;99.90
71754;DHT22;59593;51.716;7.016;2023-07-13T02:20:05;16.50;99.90
71754;DHT22;59593;51.716;7.016;2023-07-13T02:22:34;16.50;99.90
71754;DHT22;59593;51.716;7.016;2023-07-13T02:25:00;16.40;99.90
71754;DHT22;59593;51.716;7.016;2023-07-13T02:27:28;16.40;99.90
71754;DHT22;59593;51.716;7.016;2023-07-13T02:29:54;16.30;99.90
71754;DHT22;59593;51.716;7.016;2023-07-13T02:32:26;16.40;99.90
71754;DHT22;59593;51.716;7.016;2023-07-13T02:34:54;16.50;99.90
71754;DHT22;59593;51.716;7.016;2023-07-13T02:37:20;16.60;99.90
71754;DHT22;59593;51.716;7.016;2023-07-13T02:39:47;16.60;99.90
71754;DHT22;59593;51.716;7.016;2023-07-13T02:42:18;16.50;99.90
71754;DHT22;59593;51.716;7.016;2023-07-13T02:44:46;16.40;99.90
71754;DHT22;59593;51.716;7.016;2023-07-13T02:47:16;16.40;99.90
71754;DHT22;59593;51.716;7.016;2023-07-13T02:49:42;16.40;99.90
71754;DHT22;59593;51.716;7.016;2023-07-13T02:52:10;16.30;99.90
71754;DHT22;59593;51.716;7.016;2023-07-13T02:54:37;16.30;99.90
71754;DHT22;59593;51.716;7.016;2023-07-13T02:57:03;16.30;99.90
71754;DHT22;59593;51.716;7.016;2023-07-13T02:59:35;16.40;99.90
71754;DHT22;59593;51.716;7.016;2023-07-13T03:02:22;16.40;99.90
71754;DHT22;59593;51.716;7.016;2023-07-13T03:04:50;16.40;99.90
71754;DHT22;59593;51.716;7.016;2023-07-13T03:07:18;16.40;99.90
71754;DHT22;59593;51.716;7.016;2023-07-13T03:09:47;16.40;99.90
71754;DHT22;59593;51.716;7.016;2023-07-13T03:12:19;16.40;99.90
71754;DHT22;59593;51.716;7.016;2023-07-13T03:14:53;16.50;99.90
71754;DHT22;59593;51.716;7.016;2023-07-13T03:17:32;16.50;99.90
71754;DHT22;59593;51.716;7.016;2023-07-13T03:19:58;16.40;99.90
71754;DHT22;59593;51.716;7.016;2023-07-13T03:22:24;16.40;99.90
71754;DHT22;59593;51.716;7.016;2023-07-13T03:24:55;16.30;99.90
71754;DHT22;59593;51.716;7.016;2023-07-13T03:27:23;16.30;99.90
71754;DHT22;59593;51.716;7.016;2023-07-13T03:29:51;16.10;99.90
71754;DHT22;59593;51.716;7.016;2023-07-13T03:32:23;16.30;99.90
71754;DHT22;59593;51.716;7.016;2023-07-13T03:35:12;16.30;99.90
71754;DHT22;59593;51.716;7.016;2023-07-13T03:37:47;16.50;99.90
71754;DHT22;59593;51.716;7.016;2023-07-13T03:40:43;16.50;99.90
71754;DHT22;59593;51.716;7.016;2023-07-13T03:43:38;16.40;99.90
71754;DHT22;59593;51.716;7.016;2023-07-13T03:46:17;16.50;99.90
71754;DHT22;59593;51.716;7.016;2023-07-13T03:48:51;16.30;99.90
71754;DHT22;59593;51.716;7.016;2023-07-13T03:51:25;16.40;99.90
71754;DHT22;59593;51.716;7.016;2023-07-13T03:54:04;16.50;99.90
71754;DHT22;59593;51.716;7.016;2023-07-13T03:56:30;16.50;99.90
71754;DHT22;59593;51.716;7.016;2023-07-13T03:58:59;16.50;99.90
71754;DHT22;59593;51.716;7.016;2023-07-13T04:01:28;16.40;99.90
71754;DHT22;59593;51.716;7.016;2023-07-13T04:03:56;16.20;99.90
71754;DHT22;59593;51.716;7.016;2023-07-13T04:06:43;16.40;99.90
71754;DHT22;59593;51.716;7.016;2023-07-13T04:09:38;16.50;99.90
71754;DHT22;59593;51.716;7.016;2023-07-13T04:12:07;16.50;99.90
71754;DHT22;59593;51.716;7.016;2023-07-13T04:14:35;16.70;99.90
71754;DHT22;59593;51.716;7.016;2023-07-13T04:17:04;16.60;99.90
71754;DHT22;59593;51.716;7.016;2023-07-13T04:19:33;16.60;99.90
71754;DHT22;59593;51.716;7.016;2023-07-13T04:22:08;16.60;99.90
71754;DHT22;59593;51.716;7.016;2023-07-13T04:24:34;16.60;99.90
71754;DHT22;59593;51.716;7.016;2023-07-13T04:27:12;16.70;99.90
71754;DHT22;59593;51.716;7.016;2023-07-13T04:29:42;16.70;99.90
71754;DHT22;59593;51.716;7.016;2023-07-13T04:32:18;16.80;99.90
71754;DHT22;59593;51.716;7.016;2023-07-13T04:34:44;16.90;99.90
71754;DHT22;59593;51.716;7.016;2023-07-13T04:37:10;17.00;99.90
71754;DHT22;59593;51.716;7.016;2023-07-13T04:39:38;16.90;99.90
71754;DHT22;59593;51.716;7.016;2023-07-13T04:42:04;16.90;99.90
71754;DHT22;59593;51.716;7.016;2023-07-13T04:44:30;16.90;99.90
71754;DHT22;59593;51.716;7.016;2023-07-13T04:46:56;16.90;99.90
71754;DHT22;59593;51.716;7.016;2023-07-13T04:49:31;16.90;99.90
71754;DHT22;59593;51.716;7.016;2023-07-13T04:51:57;17.00;99.90
71754;DHT22;59593;51.716;7.016;2023-07-13T04:54:56;17.00;99.90
71754;DHT22;59593;51.716;7.016;2023-07-13T04:57:25;17.10;99.90
71754;DHT22;59593;51.716;7.016;2023-07-13T05:16:05;16.90;99.90
71754;DHT22;59593;51.716;7.016;2023-07-13T05:21:35;17.00;99.90
71754;DHT22;59593;51.716;7.016;2023-07-13T06:10:37;17.60;99.90
71754;DHT22;59593;51.716;7.016;2023-07-13T06:13:04;17.60;99.90
71754;DHT22;59593;51.716;7.016;2023-07-13T06:15:41;17.60;99.90
71754;DHT22;59593;51.716;7.016;2023-07-13T06:18:25;17.60;99.90
71754;DHT22;59593;51.716;7.016;2023-07-13T06:21:18;17.50;99.90
71754;DHT22;59593;51.716;7.016;2023-07-13T06:23:45;17.60;99.90
71754;DHT22;59593;51.716;7.016;2023-07-13T06:26:13;17.60;99.90
71754;DHT22;59593;51.716;7.016;2023-07-13T06:28:41;17.60;99.90
71754;DHT22;59593;51.716;7.016;2023-07-13T06:36:20;18.20;99.90
71754;DHT22;59593;51.716;7.016;2023-07-13T06:38:49;18.10;99.90
71754;DHT22;59593;51.716;7.016;2023-07-13T06:41:14;18.10;99.90
71754;DHT22;59593;51.716;7.016;2023-07-13T06:43:40;17.80;99.90
71754;DHT22;59593;51.716;7.016;2023-07-13T06:46:07;18.00;99.90
71754;DHT22;59593;51.716;7.016;2023-07-13T06:48:33;18.00;99.90
71754;DHT22;59593;51.716;7.016;2023-07-13T06:50:59;17.80;99.90
71754;DHT22;59593;51.716;7.016;2023-07-13T06:53:24;18.00;99.90
71754;DHT22;59593;51.716;7.016;2023-07-13T06:55:53;18.10;99.90
71754;DHT22;59593;51.716;7.016;2023-07-13T06:58:39;18.00;99.90
71754;DHT22;59593;51.716;7.016;2023-07-13T07:01:07;18.20;99.90
71754;DHT22;59593;51.716;7.016;2023-07-13T07:03:32;18.20;99.90
71754;DHT22;59593;51.716;7.016;2023-07-13T07:06:17;18.20;99.90
71754;DHT22;59593;51.716;7.016;2023-07-13T07:08:46;17.90;99.90
71754;DHT22;59593;51.716;7.016;2023-07-13T07:11:16;17.90;99.90
71754;DHT22;59593;51.716;7.016;2023-07-13T07:13:42;18.10;99.90
71754;DHT22;59593;51.716;7.016;2023-07-13T07:16:07;18.20;99.90
71754;DHT22;59593;51.716;7.016;2023-07-13T07:18:36;18.00;99.90
71754;DHT22;59593;51.716;7.016;2023-07-13T07:21:19;18.10;99.90
71754;DHT22;59593;51.716;7.016;2023-07-13T07:24:00;18.20;99.90
71754;DHT22;59593;51.716;7.016;2023-07-13T07:26:35;18.20;99.90
71754;DHT22;59593;51.716;7.016;2023-07-13T07:29:03;18.10;99.90
71754;DHT22;59593;51.716;7.016;2023-07-13T07:31:29;17.90;99.90
71754;DHT22;59593;51.716;7.016;2023-07-13T07:33:55;17.90;99.90
71754;DHT22;59593;51.716;7.016;2023-07-13T07:36:23;18.00;99.90
71754;DHT22;59593;51.716;7.016;2023-07-13T07:38:48;18.10;99.90
71754;DHT22;59593;51.716;7.016;2023-07-13T07:41:20;18.30;99.90
71754;DHT22;59593;51.716;7.016;2023-07-13T07:43:47;18.40;99.90
71754;DHT22;59593;51.716;7.016;2023-07-13T07:46:13;18.40;99.90
71754;DHT22;59593;51.716;7.016;2023-07-13T07:48:47;18.60;99.90
71754;DHT22;59593;51.716;7.016;2023-07-13T07:51:13;18.60;99.90
71754;DHT22;59593;51.716;7.016;2023-07-13T07:53:38;18.80;99.90
71754;DHT22;59593;51.716;7.016;2023-07-13T07:56:07;18.90;99.90
71754;DHT22;59593;51.716;7.016;2023-07-13T07:59:00;19.00;99.90
71754;DHT22;59593;51.716;7.016;2023-07-13T08:01:25;19.00;99.90
71754;DHT22;59593;51.716;7.016;2023-07-13T08:03:51;18.90;99.90
71754;DHT22;59593;51.716;7.016;2023-07-13T08:06:58;18.70;99.90
71754;DHT22;59593;51.716;7.016;2023-07-13T10:41:19;21.30;99.90
71754;DHT22;59593;51.716;7.016;2023-07-13T10:51:44;21.70;99.90
71754;DHT22;59593;51.716;7.016;2023-07-13T10:54:22;22.30;99.90
71754;DHT22;59593;51.716;7.016;2023-07-13T10:56:52;21.80;99.90
71754;DHT22;59593;51.716;7.016;2023-07-13T10:59:27;21.80;99.90
71754;DHT22;59593;51.716;7.016;2023-07-13T11:04:41;21.80;99.90
71754;DHT22;59593;51.716;7.016;2023-07-13T11:07:23;22.30;99.90
71754;DHT22;59593;51.716;7.016;2023-07-13T11:09:54;22.20;99.90
71754;DHT22;59593;51.716;7.016;2023-07-13T11:22:44;22.30;99.90
71754;DHT22;59593;51.716;7.016;2023-07-13T11:27:50;22.50;99.90
71754;DHT22;59593;51.716;7.016;2023-07-13T11:33:21;22.60;99.90
71754;DHT22;59593;51.716;7.016;2023-07-13T11:35:59;22.80;99.90
71754;DHT22;59593;51.716;7.016;2023-07-13T11:38:38;23.10;99.90
71754;DHT22;59593;51.716;7.016;2023-07-13T11:41:17;23.20;99.90
71754;DHT22;59593;51.716;7.016;2023-07-13T11:43:45;23.50;99.90
71754;DHT22;59593;51.716;7.016;2023-07-13T11:46:27;23.40;99.90
71754;DHT22;59593;51.716;7.016;2023-07-13T11:48:53;23.10;99.90
71754;DHT22;59593;51.716;7.016;2023-07-13T11:51:43;22.60;99.90
71754;DHT22;59593;51.716;7.016;2023-07-13T11:54:27;22.70;99.90
71754;DHT22;59593;51.716;7.016;2023-07-13T11:56:57;22.50;99.90
71754;DHT22;59593;51.716;7.016;2023-07-13T11:59:32;22.30;99.90
71754;DHT22;59593;51.716;7.016;2023-07-13T12:02:02;22.20;99.90
71754;DHT22;59593;51.716;7.016;2023-07-13T12:04:32;22.20;99.90
71754;DHT22;59593;51.716;7.016;2023-07-13T12:07:22;22.40;99.90
71754;DHT22;59593;51.716;7.016;2023-07-13T12:09:53;22.70;99.90
71754;DHT22;59593;51.716;7.016;2023-07-13T12:12:31;22.90;99.90
71754;DHT22;59593;51.716;7.016;2023-07-13T12:14:59;22.80;99.90
71754;DHT22;59593;51.716;7.016;2023-07-13T12:17:31;22.70;99.90
71754;DHT22;59593;51.716;7.016;2023-07-13T12:19:57;22.50;99.90
71754;DHT22;59593;51.716;7.016;2023-07-13T12:22:32;22.30;99.90
71754;DHT22;59593;51.716;7.016;2023-07-13T12:25:18;22.10;99.90
71754;DHT22;59593;51.716;7.016;2023-07-13T12:27:49;21.80;99.90
71754;DHT22;59593;51.716;7.016;2023-07-13T12:30:35;21.60;99.90
71754;DHT22;59593;51.716;7.016;2023-07-13T12:33:11;22.10;99.90
71754;DHT22;59593;51.716;7.016;2023-07-13T12:36:11;22.20;99.90
71754;DHT22;59593;51.716;7.016;2023-07-13T12:38:44;22.20;99.90
71754;DHT22;59593;51.716;7.016;2023-07-13T12:41:14;22.30;99.90
71754;DHT22;59593;51.716;7.016;2023-07-13T12:43:54;22.20;99.90
71754;DHT22;59593;51.716;7.016;2023-07-13T12:46:50;21.70;99.90
71754;DHT22;59593;51.716;7.016;2023-07-13T12:49:58;20.30;99.90
71754;DHT22;59593;51.716;7.016;2023-07-13T12:52:36;19.80;99.90
71754;DHT22;59593;51.716;7.016;2023-07-13T13:09:35;17.90;99.90
71754;DHT22;59593;51.716;7.016;2023-07-13T18:38:54;19.60;99.90
71754;DHT22;59593;51.716;7.016;2023-07-13T18:41:23;19.70;99.90
71754;DHT22;59593;51.716;7.016;2023-07-13T18:43:50;19.50;99.90
71754;DHT22;59593;51.716;7.016;2023-07-13T18:46:24;19.40;99.90
71754;DHT22;59593;51.716;7.016;2023-07-13T18:48:56;19.30;99.90
71754;DHT22;59593;51.716;7.016;2023-07-13T18:51:24;19.40;99.90
71754;DHT22;59593;51.716;7.016;2023-07-13T18:53:52;19.40;99.90
71754;DHT22;59593;51.716;7.016;2023-07-13T18:56:21;19.40;99.90
71754;DHT22;59593;51.716;7.016;2023-07-13T18:58:49;19.30;99.90
71754;DHT22;59593;51.716;7.016;2023-07-13T19:01:32;19.20;99.90
71754;DHT22;59593;51.716;7.016;2023-07-13T19:04:25;19.20;99.90
71754;DHT22;59593;51.716;7.016;2023-07-13T19:06:54;19.20;99.90
71754;DHT22;59593;51.716;7.016;2023-07-13T19:09:23;19.10;99.90
71754;DHT22;59593;51.716;7.016;2023-07-13T19:11:56;19.10;99.90
71754;DHT22;59593;51.716;7.016;2023-07-13T19:14:24;19.10;99.90
71754;DHT22;59593;51.716;7.016;2023-07-13T19:16:52;19.00;99.90
71754;DHT22;59593;51.716;7.016;2023-07-13T19:19:20;19.00;99.90
71754;DHT22;59593;51.716;7.016;2023-07-13T19:21:50;18.90;99.90
71754;DHT22;59593;51.716;7.016;2023-07-13T19:24:22;18.90;99.90
71754;DHT22;59593;51.716;7.016;2023-07-13T19:26:52;18.80;99.90
71754;DHT22;59593;51.716;7.016;2023-07-13T19:29:24;18.80;99.90
71754;DHT22;59593;51.716;7.016;2023-07-13T19:31:51;18.70;99.90
71754;DHT22;59593;51.716;7.016;2023-07-13T19:34:26;18.60;99.90
71754;DHT22;59593;51.716;7.016;2023-07-13T19:37:01;18.60;99.90
71754;DHT22;59593;51.716;7.016;2023-07-13T19:39:36;18.60;99.90
71754;DHT22;59593;51.716;7.016;2023-07-13T19:42:16;18.50;99.90
71754;DHT22;59593;51.716;7.016;2023-07-13T19:44:43;18.50;99.90
71754;DHT22;59593;51.716;7.016;2023-07-13T19:47:16;18.40;99.90
71754;DHT22;59593;51.716;7.016;2023-07-13T19:49:45;18.30;99.90
71754;DHT22;59593;51.716;7.016;2023-07-13T19:52:17;18.30;99.90
71754;DHT22;59593;51.716;7.016;2023-07-13T19:54:52;18.40;99.90
71754;DHT22;59593;51.716;7.016;2023-07-13T19:57:23;18.40;99.90
71754;DHT22;59593;51.716;7.016;2023-07-13T19:59:51;18.30;99.90
71754;DHT22;59593;51.716;7.016;2023-07-13T20:02:24;18.20;99.90
71754;DHT22;59593;51.716;7.016;2023-07-13T20:04:53;18.20;99.90
71754;DHT22;59593;51.716;7.016;2023-07-13T20:07:22;18.20;99.90
71754;DHT22;59593;51.716;7.016;2023-07-13T20:09:50;18.20;99.90
71754;DHT22;59593;51.716;7.016;2023-07-13T20:12:29;18.20;99.90
71754;DHT22;59593;51.716;7.016;2023-07-13T20:14:55;18.20;99.90
71754;DHT22;59593;51.716;7.016;2023-07-13T20:17:33;18.20;99.90
71754;DHT22;59593;51.716;7.016;2023-07-13T20:20:01;18.20;99.90
71754;DHT22;59593;51.716;7.016;2023-07-13T20:22:29;18.20;99.90
71754;DHT22;59593;51.716;7.016;2023-07-13T20:24:58;18.20;99.90
71754;DHT22;59593;51.716;7.016;2023-07-13T20:27:24;18.20;99.90
71754;DHT22;59593;51.716;7.016;2023-07-13T20:29:50;18.20;99.90
71754;DHT22;59593;51.716;7.016;2023-07-13T20:32:22;18.30;99.90
71754;DHT22;59593;51.716;7.016;2023-07-13T20:34:48;18.30;99.90
71754;DHT22;59593;51.716;7.016;2023-07-13T20:37:25;18.20;99.90
71754;DHT22;59593;51.716;7.016;2023-07-13T20:39:57;18.20;99.90
71754;DHT22;59593;51.716;7.016;2023-07-13T20:42:25;18.30;99.90
71754;DHT22;59593;51.716;7.016;2023-07-13T20:44:50;18.20;99.90
71754;DHT22;59593;51.716;7.016;2023-07-13T20:47:40;18.20;99.90
71754;DHT22;59593;51.716;7.016;2023-07-13T20:50:27;18.10;99.90
71754;DHT22;59593;51.716;7.016;2023-07-13T20:52:58;18.00;99.90
71754;DHT22;59593;51.716;7.016;2023-07-13T20:55:27;18.00;99.90
71754;DHT22;59593;51.716;7.016;2023-07-13T20:57:53;17.90;99.90
71754;DHT22;59593;51.716;7.016;2023-07-13T21:00:23;17.90;99.90
71754;DHT22;59593;51.716;7.016;2023-07-13T21:03:06;17.80;99.90
71754;DHT22;59593;51.716;7.016;2023-07-13T21:05:43;17.70;99.90
71754;DHT22;59593;51.716;7.016;2023-07-13T21:08:18;17.60;99.90
71754;DHT22;59593;51.716;7.016;2023-07-13T21:10:44;17.60;99.90
71754;DHT22;59593;51.716;7.016;2023-07-13T21:13:16;17.50;99.90
71754;DHT22;59593;51.716;7.016;2023-07-13T21:15:44;17.50;99.90
71754;DHT22;59593;51.716;7.016;2023-07-13T21:18:39;17.50;99.90
71754;DHT22;59593;51.716;7.016;2023-07-13T21:21:07;17.50;99.90
71754;DHT22;59593;51.716;7.016;2023-07-13T21:23:35;17.40;99.90
71754;DHT22;59593;51.716;7.016;2023-07-13T21:26:07;17.40;99.90
71754;DHT22;59593;51.716;7.016;2023-07-13T21:28:46;17.50;99.90
71754;DHT22;59593;51.716;7.016;2023-07-13T21:31:23;17.40;99.90
71754;DHT22;59593;51.716;7.016;2023-07-13T21:33:54;17.50;99.90
71754;DHT22;59593;51.716;7.016;2023-07-13T21:36:23;17.40;99.90
71754;DHT22;59593;51.716;7.016;2023-07-13T21:39:01;17.40;99.90
71754;DHT22;59593;51.716;7.016;2023-07-13T21:41:33;17.50;99.90
71754;DHT22;59593;51.716;7.016;2023-07-13T21:46:48;17.40;99.90
71754;DHT22;59593;51.716;7.016;2023-07-13T21:49:16;17.30;99.90
71754;DHT22;59593;51.716;7.016;2023-07-13T21:51:44;17.30;99.90
71754;DHT22;59593;51.716;7.016;2023-07-13T21:54:23;17.30;99.90
71754;DHT22;59593;51.716;7.016;2023-07-13T21:56:49;17.30;99.90
71754;DHT22;59593;51.716;7.016;2023-07-13T21:59:28;17.30;99.90
71754;DHT22;59593;51.716;7.016;2023-07-13T22:01:54;17.30;99.90
71754;DHT22;59593;51.716;7.016;2023-07-13T22:04:27;17.40;99.90
71754;DHT22;59593;51.716;7.016;2023-07-13T22:06:56;17.30;99.90
71754;DHT22;59593;51.716;7.016;2023-07-13T22:09:25;17.30;99.90
71754;DHT22;59593;51.716;7.016;2023-07-13T22:11:54;17.30;99.90
71754;DHT22;59593;51.716;7.016;2023-07-13T22:14:22;17.30;99.90
71754;DHT22;59593;51.716;7.016;2023-07-13T22:16:48;17.20;99.90
71754;DHT22;59593;51.716;7.016;2023-07-13T22:19:20;17.20;99.90
71754;DHT22;59593;51.716;7.016;2023-07-13T22:21:47;17.10;99.90
71754;DHT22;59593;51.716;7.016;2023-07-13T22:24:18;17.10;99.90
71754;DHT22;59593;51.716;7.016;2023-07-13T22:26:48;17.00;99.90
71754;DHT22;59593;51.716;7.016;2023-07-13T22:29:18;17.00;99.90
71754;DHT22;59593;51.716;7.016;2023-07-13T22:31:48;17.00;99.90
71754;DHT22;59593;51.716;7.016;2023-07-13T22:34:16;16.90;99.90
71754;DHT22;59593;51.716;7.016;2023-07-13T22:36:45;16.80;99.90
71754;DHT22;59593;51.716;7.016;2023-07-13T22:39:26;16.80;99.90
71754;DHT22;59593;51.716;7.016;2023-07-13T22:41:52;16.70;99.90
71754;DHT22;59593;51.716;7.016;2023-07-13T22:44:20;16.70;99.90
71754;DHT22;59593;51.716;7.016;2023-07-13T22:46:50;16.60;99.90
71754;DHT22;59593;51.716;7.016;2023-07-13T22:49:26;16.60;99.90
71754;DHT22;59593;51.716;7.016;2023-07-13T22:52:01;16.60;99.90
71754;DHT22;59593;51.716;7.016;2023-07-13T22:54:32;16.50;99.90
71754;DHT22;59593;51.716;7.016;2023-07-13T22:56:58;16.50;99.90
71754;DHT22;59593;51.716;7.016;2023-07-13T22:59:27;16.50;99.90
71754;DHT22;59593;51.716;7.016;2023-07-13T23:01:56;16.40;99.90
71754;DHT22;59593;51.716;7.016;2023-07-13T23:07:02;16.30;99.90
71754;DHT22;59593;51.716;7.016;2023-07-13T23:09:29;16.30;99.90
71754;DHT22;59593;51.716;7.016;2023-07-13T23:12:01;16.30;99.90
71754;DHT22;59593;51.716;7.016;2023-07-13T23:14:28;16.30;99.90
71754;DHT22;59593;51.716;7.016;2023-07-13T23:16:56;16.30;99.90
71754;DHT22;59593;51.716;7.016;2023-07-13T23:19:30;16.20;99.90
71754;DHT22;59593;51.716;7.016;2023-07-13T23:21:59;16.20;99.90
71754;DHT22;59593;51.716;7.016;2023-07-13T23:24:33;16.20;99.90
71754;DHT22;59593;51.716;7.016;2023-07-13T23:27:02;16.20;99.90
71754;DHT22;59593;51.716;7.016;2023-07-13T23:29:31;16.10;99.90
71754;DHT22;59593;51.716;7.016;2023-07-13T23:31:57;16.10;99.90
71754;DHT22;59593;51.716;7.016;2023-07-13T23:34:25;16.10;99.90
71754;DHT22;59593;51.716;7.016;2023-07-13T23:36:53;16.10;99.90
71754;DHT22;59593;51.716;7.016;2023-07-13T23:39:24;16.10;99.90
71754;DHT22;59593;51.716;7.016;2023-07-13T23:41:53;16.10;99.90
71754;DHT22;59593;51.716;7.016;2023-07-13T23:44:19;16.10;99.90
71754;DHT22;59593;51.716;7.016;2023-07-13T23:46:48;16.10;99.90
71754;DHT22;59593;51.716;7.016;2023-07-13T23:49:30;16.20;99.90
71754;DHT22;59593;51.716;7.016;2023-07-13T23:52:05;16.20;99.90
71754;DHT22;59593;51.716;7.016;2023-07-13T23:54:34;16.20;99.90
71754;DHT22;59593;51.716;7.016;2023-07-13T23:57:00;16.20;99.90
71754;DHT22;59593;51.716;7.016;2023-07-13T23:59:27;16.20;99.90
